createdAt,value
2023-03-30T00:00:03.986Z,11.2014
2023-03-30T00:01:04.438Z,11.2497
2023-03-30T00:02:04.851Z,11.1259
2023-03-30T00:03:05.390Z,11.0160
2023-03-30T00:04:05.988Z,11.2928
2023-03-30T00:05:06.573Z,11.2227
2023-03-30T00:06:07.023Z,11.1696
2023-03-30T00:07:07.320Z,11.1268
2023-03-30T00:08:07.632Z,11.2116
2023-03-30T00:09:07.941Z,11.2188
2023-03-30T00:10:08.256Z,11.1956
2023-03-30T00:11:08.633Z,11.1059
2023-03-30T00:13:09.115Z,11.0554
2023-03-30T00:14:09.398Z,11.3196
2023-03-30T00:15:09.711Z,11.2419
2023-03-30T00:16:10.118Z,11.4022
2023-03-30T00:17:10.383Z,11.3875
2023-03-30T00:18:10.806Z,11.3811
2023-03-30T00:19:11.131Z,11.3091
2023-03-30T00:20:11.528Z,11.5069
2023-03-30T00:21:11.958Z,11.6692
2023-03-30T00:22:12.261Z,11.6809
2023-03-30T00:23:12.576Z,11.4929
2023-03-30T00:24:12.905Z,11.7327
2023-03-30T00:25:13.298Z,11.7117
2023-03-30T00:26:13.647Z,11.8165
2023-03-30T00:27:13.963Z,11.7209
2023-03-30T00:28:14.331Z,11.5800
2023-03-30T00:30:14.897Z,11.7279
2023-03-30T00:31:15.234Z,11.7583
2023-03-30T00:32:15.611Z,11.8120
2023-03-30T00:33:15.964Z,11.8329
2023-03-30T00:34:16.258Z,11.7897
2023-03-30T00:35:16.702Z,11.8905
2023-03-30T00:36:17.240Z,11.8417
2023-03-30T00:37:17.920Z,11.8721
2023-03-30T00:38:18.306Z,11.7836
2023-03-30T00:39:18.610Z,12.0024
2023-03-30T00:40:18.899Z,11.9050
2023-03-30T00:41:19.286Z,11.6817
2023-03-30T00:42:19.601Z,11.5973
2023-03-30T00:43:19.949Z,11.6248
2023-03-30T00:44:20.271Z,11.7393
2023-03-30T00:45:20.660Z,11.6329
2023-03-30T00:46:21.071Z,11.9342
2023-03-30T00:47:21.428Z,11.8095
2023-03-30T00:48:21.770Z,11.6442
2023-03-30T00:49:22.133Z,11.7873
2023-03-30T00:50:22.448Z,11.7168
2023-03-30T00:51:22.793Z,11.6845
2023-03-30T00:52:23.221Z,11.8063
2023-03-30T00:53:23.542Z,11.7197
2023-03-30T00:54:23.822Z,11.5538
2023-03-30T00:55:24.171Z,11.3313
2023-03-30T00:56:24.511Z,11.1990
2023-03-30T00:57:25.012Z,11.4483
2023-03-30T00:58:25.443Z,11.1357
2023-03-30T00:59:25.842Z,11.1785
2023-03-30T01:00:26.148Z,11.2678
2023-03-30T01:01:26.488Z,11.7313
2023-03-30T01:02:26.856Z,12.1198
2023-03-30T01:03:27.411Z,12.1393
2023-03-30T01:04:27.850Z,12.4378
2023-03-30T01:05:28.165Z,12.2774
2023-03-30T01:06:28.508Z,12.2479
2023-03-30T01:07:28.847Z,12.4614
2023-03-30T01:08:29.202Z,12.5484
2023-03-30T01:09:29.492Z,12.7227
2023-03-30T01:10:29.815Z,12.3859
2023-03-30T01:11:30.168Z,12.3563
2023-03-30T01:12:30.582Z,12.5162
2023-03-30T01:13:30.894Z,12.5284
2023-03-30T01:14:31.215Z,12.7338
2023-03-30T01:15:31.546Z,12.7721
2023-03-30T01:16:31.836Z,12.6430
2023-03-30T01:17:32.213Z,12.3743
2023-03-30T01:18:32.572Z,12.3859
2023-03-30T01:19:32.904Z,12.0191
2023-03-30T01:20:33.198Z,11.7438
2023-03-30T01:21:33.524Z,12.2949
2023-03-30T01:22:33.845Z,12.0259
2023-03-30T01:23:34.211Z,12.1742
2023-03-30T01:24:34.570Z,12.1718
2023-03-30T01:25:34.923Z,11.8108
2023-03-30T01:26:35.257Z,11.7319
2023-03-30T01:27:35.606Z,11.9047
2023-03-30T01:28:35.901Z,12.4757
2023-03-30T01:29:36.231Z,12.5532
2023-03-30T01:30:36.519Z,12.4774
2023-03-30T01:31:36.910Z,12.4450
2023-03-30T01:33:37.396Z,11.7996
2023-03-30T01:34:37.734Z,11.8894
2023-03-30T01:35:38.229Z,11.6500
2023-03-30T01:36:38.892Z,11.4239
2023-03-30T01:37:39.273Z,11.3596
2023-03-30T01:38:39.607Z,11.1402
2023-03-30T01:39:39.988Z,11.0100
2023-03-30T01:40:40.416Z,11.0860
2023-03-30T01:41:40.743Z,10.8659
2023-03-30T01:42:41.075Z,10.5986
2023-03-30T01:43:41.392Z,10.6955
2023-03-30T01:44:41.737Z,10.6681
2023-03-30T01:45:42.148Z,10.8358
2023-03-30T01:46:42.653Z,11.0328
2023-03-30T01:47:43.062Z,11.1030
2023-03-30T01:48:43.403Z,10.9627
2023-03-30T01:50:43.909Z,11.4801
2023-03-30T01:51:44.272Z,11.6998
2023-03-30T01:52:44.591Z,11.3003
2023-03-30T01:53:44.920Z,11.3648
2023-03-30T01:54:45.262Z,11.3938
2023-03-30T01:55:45.683Z,10.4995
2023-03-30T01:56:46.073Z,10.1265
2023-03-30T01:57:46.381Z,9.9634
2023-03-30T01:58:46.740Z,10.0267
2023-03-30T01:59:47.055Z,10.3466
2023-03-30T02:00:47.400Z,10.3159
2023-03-30T02:01:47.800Z,10.3307
2023-03-30T02:03:48.383Z,10.2717
2023-03-30T02:04:48.728Z,10.2629
2023-03-30T02:05:49.018Z,10.1132
2023-03-30T02:06:49.337Z,10.1369
2023-03-30T02:07:49.656Z,9.9807
2023-03-30T02:08:49.948Z,9.9144
2023-03-30T02:09:50.293Z,10.1171
2023-03-30T02:10:50.683Z,10.2842
2023-03-30T02:11:51.055Z,10.1898
2023-03-30T02:12:51.352Z,10.1531
2023-03-30T02:13:51.661Z,10.1252
2023-03-30T02:14:52.005Z,10.2231
2023-03-30T02:15:52.331Z,10.2907
2023-03-30T02:16:52.624Z,10.3568
2023-03-30T02:17:52.966Z,10.4430
2023-03-30T02:18:53.262Z,10.5738
2023-03-30T02:19:53.602Z,10.6002
2023-03-30T02:20:53.939Z,10.6894
2023-03-30T02:21:54.282Z,10.6482
2023-03-30T02:22:54.573Z,10.5275
2023-03-30T02:23:54.940Z,10.5810
2023-03-30T02:24:55.260Z,10.6817
2023-03-30T02:25:55.603Z,10.4032
2023-03-30T02:26:55.913Z,10.2121
2023-03-30T02:27:56.205Z,10.9308
2023-03-30T02:28:56.558Z,10.8815
2023-03-30T02:29:56.967Z,10.8291
2023-03-30T02:30:57.270Z,11.0454
2023-03-30T02:31:57.597Z,10.7041
2023-03-30T02:32:57.995Z,10.5695
2023-03-30T02:33:58.299Z,10.6920
2023-03-30T02:34:58.612Z,10.6156
2023-03-30T02:35:58.997Z,10.7537
2023-03-30T02:36:59.349Z,10.5034
2023-03-30T02:37:59.744Z,10.3187
2023-03-30T02:39:00.117Z,10.5144
2023-03-30T02:40:00.475Z,10.5818
2023-03-30T02:41:00.923Z,10.5590
2023-03-30T02:42:01.387Z,10.6465
2023-03-30T02:43:01.712Z,10.6510
2023-03-30T02:44:02.073Z,10.6779
2023-03-30T02:45:02.390Z,10.8110
2023-03-30T02:46:02.750Z,10.6524
2023-03-30T02:47:03.091Z,10.7126
2023-03-30T02:48:03.416Z,10.7723
2023-03-30T02:49:03.751Z,11.0390
2023-03-30T02:50:04.046Z,11.3207
2023-03-30T02:51:04.641Z,11.5127
2023-03-30T02:52:05.235Z,11.7601
2023-03-30T02:53:05.557Z,11.8459
2023-03-30T02:54:05.890Z,11.6081
2023-03-30T02:55:06.184Z,11.6777
2023-03-30T02:56:06.520Z,11.2205
2023-03-30T02:57:06.953Z,11.5235
2023-03-30T02:58:07.308Z,11.7352
2023-03-30T02:59:07.616Z,11.6176
2023-03-30T03:00:07.962Z,11.2396
2023-03-30T03:01:08.535Z,11.1112
2023-03-30T03:02:09.255Z,11.3938
2023-03-30T03:03:09.939Z,11.3983
2023-03-30T03:04:10.291Z,11.4306
2023-03-30T03:05:10.626Z,11.3084
2023-03-30T03:06:11.059Z,11.3595
2023-03-30T03:07:11.416Z,11.3993
2023-03-30T03:08:11.741Z,11.2565
2023-03-30T03:09:12.048Z,11.0613
2023-03-30T03:10:12.359Z,10.6789
2023-03-30T03:11:12.708Z,10.9528
2023-03-30T03:12:13.036Z,11.0104
2023-03-30T03:13:13.354Z,10.9816
2023-03-30T03:14:13.691Z,10.8030
2023-03-30T03:15:14.012Z,10.7613
2023-03-30T03:16:14.316Z,10.9147
2023-03-30T03:17:14.734Z,10.8352
2023-03-30T03:18:15.129Z,10.7809
2023-03-30T03:20:15.594Z,10.9404
2023-03-30T03:21:15.991Z,10.9305
2023-03-30T03:22:16.355Z,10.8610
2023-03-30T03:23:16.716Z,10.9225
2023-03-30T03:24:17.235Z,10.7660
2023-03-30T03:25:17.776Z,10.7926
2023-03-30T03:26:18.289Z,10.7968
2023-03-30T03:27:18.916Z,10.9170
2023-03-30T03:28:19.580Z,10.8364
2023-03-30T03:29:20.282Z,10.8697
2023-03-30T03:30:20.667Z,10.9097
2023-03-30T03:31:21.746Z,10.9737
2023-03-30T03:32:22.235Z,10.9217
2023-03-30T03:33:23.023Z,10.8030
2023-03-30T03:34:23.391Z,10.9642
2023-03-30T03:35:23.958Z,10.8445
2023-03-30T03:36:24.363Z,10.9701
2023-03-30T03:37:24.763Z,11.0503
2023-03-30T03:38:25.134Z,10.8339
2023-03-30T03:39:25.467Z,10.7693
2023-03-30T03:40:25.813Z,10.8330
2023-03-30T03:41:26.342Z,10.9612
2023-03-30T03:42:26.718Z,11.0131
2023-03-30T03:43:27.116Z,10.9909
2023-03-30T03:44:27.401Z,10.9479
2023-03-30T03:45:27.872Z,10.9524
2023-03-30T03:46:28.397Z,10.8770
2023-03-30T03:47:28.924Z,10.8157
2023-03-30T03:48:29.358Z,10.8297
2023-03-30T03:49:29.793Z,10.7837
2023-03-30T03:50:30.222Z,10.7443
2023-03-30T03:51:30.705Z,10.7513
2023-03-30T03:52:31.062Z,10.6742
2023-03-30T03:53:31.425Z,10.5574
2023-03-30T03:54:31.820Z,10.4174
2023-03-30T03:55:32.224Z,10.4927
2023-03-30T03:56:32.836Z,10.6021
2023-03-30T03:57:33.294Z,10.7603
2023-03-30T03:58:33.889Z,10.6397
2023-03-30T03:59:34.400Z,10.5484
2023-03-30T04:00:34.856Z,10.3489
2023-03-30T04:01:35.365Z,10.6124
2023-03-30T04:02:35.892Z,10.6789
2023-03-30T04:03:36.473Z,10.7238
2023-03-30T04:04:36.955Z,10.6443
2023-03-30T04:05:37.512Z,10.7847
2023-03-30T04:06:37.923Z,11.1053
2023-03-30T04:07:38.435Z,11.0389
2023-03-30T04:08:38.890Z,10.9890
2023-03-30T04:09:39.263Z,10.9456
2023-03-30T04:10:39.683Z,10.8755
2023-03-30T04:11:40.077Z,10.6632
2023-03-30T04:12:40.461Z,10.6128
2023-03-30T04:13:40.844Z,10.6210
2023-03-30T04:14:41.213Z,10.7948
2023-03-30T04:15:41.596Z,10.8666
2023-03-30T04:16:41.981Z,11.0023
2023-03-30T04:17:42.518Z,11.0150
2023-03-30T04:18:43.085Z,10.9196
2023-03-30T04:19:43.460Z,10.8308
2023-03-30T04:20:43.885Z,11.0854
2023-03-30T04:21:44.271Z,11.1481
2023-03-30T04:22:44.685Z,11.2635
2023-03-30T04:23:45.063Z,11.2521
2023-03-30T04:24:45.411Z,11.1994
2023-03-30T04:25:45.908Z,11.3391
2023-03-30T04:26:46.265Z,11.4762
2023-03-30T04:27:46.711Z,11.4769
2023-03-30T04:28:47.213Z,11.4126
2023-03-30T04:30:47.784Z,11.2791
2023-03-30T04:31:48.425Z,11.3147
2023-03-30T04:32:49.037Z,11.1860
2023-03-30T04:33:50.918Z,11.1636
2023-03-30T04:34:49.801Z,11.0776
2023-03-30T04:35:50.357Z,10.8855
2023-03-30T04:36:50.818Z,10.7037
2023-03-30T04:37:51.194Z,10.8161
2023-03-30T04:38:51.593Z,10.8476
2023-03-30T04:39:51.941Z,10.6188
2023-03-30T04:40:52.388Z,10.5251
2023-03-30T04:41:52.821Z,10.4603
2023-03-30T04:43:53.430Z,10.2685
2023-03-30T04:44:53.805Z,10.1820
2023-03-30T04:45:54.295Z,10.0835
2023-03-30T04:46:54.798Z,10.4423
2023-03-30T04:48:55.367Z,10.8035
2023-03-30T04:49:55.780Z,11.0168
2023-03-30T04:50:56.151Z,11.0710
2023-03-30T04:51:56.589Z,11.0577
2023-03-30T04:52:57.023Z,11.3014
2023-03-30T04:53:57.503Z,11.6406
2023-03-30T04:54:57.898Z,11.7046
2023-03-30T04:55:58.316Z,11.6193
2023-03-30T04:56:58.734Z,11.6552
2023-03-30T04:57:59.176Z,11.6013
2023-03-30T04:58:59.664Z,11.5693
2023-03-30T05:00:00.075Z,11.5759
2023-03-30T05:01:00.478Z,11.5106
2023-03-30T05:02:00.893Z,11.5689
2023-03-30T05:03:01.392Z,11.6150
2023-03-30T05:04:01.997Z,11.5381
2023-03-30T05:05:02.666Z,10.7639
2023-03-30T05:06:03.223Z,10.5448
2023-03-30T05:07:03.610Z,10.4769
2023-03-30T05:08:04.147Z,10.5456
2023-03-30T05:09:04.584Z,11.0277
2023-03-30T05:10:05.005Z,11.3936
2023-03-30T05:11:05.792Z,11.4157
2023-03-30T05:12:06.645Z,11.5189
2023-03-30T05:13:07.133Z,11.4457
2023-03-30T05:14:07.577Z,11.4936
2023-03-30T05:15:07.986Z,11.2419
2023-03-30T05:16:08.513Z,11.0994
2023-03-30T05:17:09.103Z,11.5171
2023-03-30T05:18:09.891Z,11.5810
2023-03-30T05:19:10.308Z,11.5940
2023-03-30T05:20:10.761Z,11.5607
2023-03-30T05:21:11.163Z,11.5191
2023-03-30T05:22:11.651Z,11.3899
2023-03-30T05:23:12.076Z,11.6807
2023-03-30T05:24:12.543Z,11.5211
2023-03-30T05:26:13.219Z,11.8112
2023-03-30T05:27:13.630Z,11.4362
2023-03-30T05:28:14.130Z,11.4468
2023-03-30T05:29:14.543Z,11.1337
2023-03-30T05:30:15.035Z,11.0038
2023-03-30T05:31:15.477Z,11.0121
2023-03-30T05:32:16.013Z,10.6233
2023-03-30T05:33:16.390Z,10.6363
2023-03-30T05:34:17.053Z,10.6823
2023-03-30T05:35:17.431Z,10.9842
2023-03-30T05:36:17.948Z,10.8788
2023-03-30T05:37:18.587Z,10.8482
2023-03-30T05:38:19.267Z,10.6336
2023-03-30T05:39:19.615Z,10.4237
2023-03-30T05:40:20.070Z,10.9053
2023-03-30T05:41:20.399Z,10.9950
2023-03-30T05:42:20.785Z,11.2006
2023-03-30T05:43:21.162Z,11.0469
2023-03-30T05:44:22.645Z,11.1716
2023-03-30T05:45:23.133Z,11.2227
2023-03-30T05:46:23.605Z,11.3321
2023-03-30T05:47:24.008Z,11.1475
2023-03-30T05:48:24.368Z,10.9696
2023-03-30T05:49:24.789Z,10.8726
2023-03-30T05:50:25.195Z,10.8181
2023-03-30T05:51:25.670Z,10.6179
2023-03-30T05:52:26.089Z,10.6258
2023-03-30T05:53:26.706Z,10.7355
2023-03-30T05:54:27.079Z,10.8648
2023-03-30T05:55:27.496Z,11.0182
2023-03-30T05:56:27.849Z,11.2092
2023-03-30T05:57:28.298Z,11.3522
2023-03-30T05:58:28.653Z,11.1605
2023-03-30T05:59:29.030Z,10.7996
2023-03-30T06:00:29.541Z,10.5939
2023-03-30T06:01:29.928Z,10.4828
2023-03-30T06:02:30.372Z,10.3763
2023-03-30T06:03:30.846Z,10.6395
2023-03-30T06:04:31.393Z,10.6963
2023-03-30T06:05:31.873Z,10.8118
2023-03-30T06:06:32.331Z,10.7547
2023-03-30T06:07:32.707Z,10.6389
2023-03-30T06:08:33.134Z,10.5293
2023-03-30T06:09:33.533Z,10.4472
2023-03-30T06:10:33.970Z,10.8276
2023-03-30T06:11:34.318Z,11.1003
2023-03-30T06:12:34.741Z,11.2542
2023-03-30T06:13:35.106Z,11.2347
2023-03-30T06:14:35.508Z,11.4584
2023-03-30T06:15:35.833Z,11.9934
2023-03-30T06:16:36.317Z,12.3888
2023-03-30T06:17:36.788Z,12.4062
2023-03-30T06:18:37.265Z,12.5193
2023-03-30T06:19:37.675Z,12.2263
2023-03-30T06:20:38.056Z,12.6945
2023-03-30T06:21:38.432Z,12.2525
2023-03-30T06:22:38.812Z,12.4690
2023-03-30T06:23:39.158Z,12.8833
2023-03-30T06:25:39.699Z,12.9884
2023-03-30T06:26:40.087Z,12.9502
2023-03-30T06:27:41.965Z,13.2156
2023-03-30T06:28:42.120Z,13.3931
2023-03-30T06:29:42.477Z,13.1385
2023-03-30T06:30:43.092Z,12.9389
2023-03-30T06:31:43.548Z,12.5837
2023-03-30T06:32:44.022Z,12.5675
2023-03-30T06:33:44.402Z,12.8637
2023-03-30T06:34:44.768Z,12.7328
2023-03-30T06:35:45.202Z,12.6134
2023-03-30T06:37:45.726Z,12.2746
2023-03-30T06:38:46.150Z,12.2696
2023-03-30T06:39:46.521Z,11.9990
2023-03-30T06:40:46.913Z,11.7156
2023-03-30T06:41:47.258Z,11.5659
2023-03-30T06:42:47.668Z,11.5030
2023-03-30T06:43:48.091Z,11.6048
2023-03-30T06:44:49.948Z,11.5290
2023-03-30T06:45:50.412Z,11.2928
2023-03-30T06:46:50.824Z,11.3524
2023-03-30T06:47:51.276Z,11.6250
2023-03-30T06:48:51.633Z,11.7158
2023-03-30T06:49:51.965Z,11.2988
2023-03-30T06:50:52.390Z,11.1420
2023-03-30T06:51:52.751Z,11.2133
2023-03-30T06:53:53.244Z,11.9825
2023-03-30T06:54:53.630Z,12.4312
2023-03-30T06:55:53.999Z,12.7256
2023-03-30T06:56:54.462Z,12.7438
2023-03-30T06:57:54.822Z,12.8698
2023-03-30T06:58:55.187Z,12.8454
2023-03-30T06:59:55.711Z,12.8087
2023-03-30T07:00:56.044Z,12.6810
2023-03-30T07:01:56.545Z,12.5616
2023-03-30T07:02:57.308Z,12.5349
2023-03-30T07:03:58.053Z,12.6105
2023-03-30T07:04:58.441Z,12.4568
2023-03-30T07:05:58.892Z,12.4407
2023-03-30T07:06:59.270Z,12.7499
2023-03-30T07:07:59.642Z,12.9384
2023-03-30T07:08:59.960Z,13.0419
2023-03-30T07:10:00.315Z,12.9957
2023-03-30T07:11:00.728Z,13.0109
2023-03-30T07:12:01.084Z,12.8542
2023-03-30T07:13:01.411Z,12.6224
2023-03-30T07:14:01.792Z,12.7006
2023-03-30T07:15:02.195Z,12.6393
2023-03-30T07:16:02.548Z,12.5804
2023-03-30T07:17:03.080Z,12.6055
2023-03-30T07:18:03.515Z,12.8312
2023-03-30T07:19:03.924Z,12.9722
2023-03-30T07:21:05.122Z,12.9552
2023-03-30T07:22:05.627Z,13.0810
2023-03-30T07:23:06.224Z,13.1629
2023-03-30T07:24:06.617Z,13.2829
2023-03-30T07:25:07.058Z,13.4235
2023-03-30T07:26:07.424Z,13.4912
2023-03-30T07:27:08.191Z,13.5497
2023-03-30T07:28:09.191Z,13.5600
2023-03-30T07:29:09.518Z,13.6085
2023-03-30T07:31:10.118Z,13.6878
2023-03-30T07:32:10.526Z,13.7601
2023-03-30T07:33:10.910Z,13.8169
2023-03-30T07:34:11.234Z,13.7032
2023-03-30T07:35:11.601Z,13.7589
2023-03-30T07:36:12.001Z,13.7648
2023-03-30T07:37:12.342Z,13.8010
2023-03-30T07:38:13.145Z,13.8189
2023-03-30T07:39:14.556Z,13.8309
2023-03-30T07:40:15.017Z,13.8338
2023-03-30T07:41:15.386Z,13.9532
2023-03-30T07:42:15.801Z,14.0706
2023-03-30T07:43:16.184Z,14.1210
2023-03-30T07:44:16.501Z,14.0669
2023-03-30T07:45:16.940Z,14.1468
2023-03-30T07:46:17.280Z,14.2130
2023-03-30T07:48:17.831Z,14.2842
2023-03-30T07:49:18.198Z,14.3408
2023-03-30T07:52:19.571Z,14.3033
2023-03-30T07:53:19.940Z,14.2969
2023-03-30T07:54:20.668Z,14.5395
2023-03-30T07:55:21.458Z,14.4698
2023-03-30T07:56:21.906Z,14.4181
2023-03-30T07:57:22.494Z,14.3374
2023-03-30T07:58:23.235Z,14.3199
2023-03-30T08:00:24.945Z,14.3437
2023-03-30T08:01:25.962Z,14.3255
2023-03-30T08:02:26.380Z,14.2839
2023-03-30T08:03:26.868Z,14.2349
2023-03-30T08:04:27.643Z,14.1667
2023-03-30T08:05:29.277Z,14.1260
2023-03-30T08:06:30.840Z,14.1386
2023-03-30T08:07:31.210Z,14.0644
2023-03-30T08:08:31.605Z,14.0909
2023-03-30T08:09:31.957Z,14.0071
2023-03-30T08:10:32.536Z,14.0638
2023-03-30T08:11:33.924Z,14.0252
2023-03-30T08:12:34.380Z,14.0134
2023-03-30T08:13:34.739Z,13.9086
2023-03-30T08:14:35.199Z,13.8393
2023-03-30T08:15:36.597Z,13.8496
2023-03-30T08:16:37.188Z,13.7770
2023-03-30T08:17:37.797Z,13.8668
2023-03-30T08:18:38.167Z,13.8357
2023-03-30T08:19:38.539Z,13.8335
2023-03-30T08:20:38.917Z,13.9824
2023-03-30T08:21:39.326Z,14.1204
2023-03-30T08:22:39.738Z,14.1846
2023-03-30T08:23:40.120Z,14.2919
2023-03-30T08:24:40.504Z,14.3342
2023-03-30T08:25:40.914Z,14.4957
2023-03-30T08:26:41.245Z,14.4560
2023-03-30T08:27:41.636Z,14.3927
2023-03-30T08:28:41.997Z,14.2960
2023-03-30T08:29:42.385Z,14.1153
2023-03-30T08:30:42.729Z,13.9919
2023-03-30T08:31:43.142Z,13.9927
2023-03-30T08:32:43.531Z,13.8442
2023-03-30T08:33:43.867Z,13.8029
2023-03-30T08:34:44.268Z,13.7304
2023-03-30T08:35:44.658Z,13.6908
2023-03-30T08:36:45.044Z,13.6149
2023-03-30T08:37:45.426Z,13.6148
2023-03-30T08:38:46.827Z,13.5486
2023-03-30T08:39:47.248Z,13.5621
2023-03-30T08:40:47.661Z,13.6470
2023-03-30T08:41:48.062Z,13.9598
2023-03-30T08:42:48.413Z,13.9990
2023-03-30T08:43:48.831Z,14.0756
2023-03-30T08:44:49.199Z,14.0164
2023-03-30T08:45:49.621Z,14.2096
2023-03-30T08:46:50.028Z,14.1460
2023-03-30T08:47:50.459Z,14.1799
2023-03-30T08:48:50.839Z,14.2740
2023-03-30T08:49:51.261Z,14.3111
2023-03-30T08:50:51.642Z,14.3089
2023-03-30T08:51:52.030Z,14.3863
2023-03-30T08:52:52.489Z,14.5032
2023-03-30T08:53:52.830Z,14.5336
2023-03-30T08:54:53.261Z,14.3519
2023-03-30T08:55:53.643Z,14.3373
2023-03-30T08:56:54.075Z,14.2470
2023-03-30T08:57:54.466Z,14.1508
2023-03-30T08:58:54.850Z,14.0948
2023-03-30T08:59:55.201Z,14.1716
2023-03-30T09:00:55.613Z,14.0553
2023-03-30T09:01:56.120Z,14.1380
2023-03-30T09:02:56.814Z,14.1279
2023-03-30T09:03:57.228Z,14.1019
2023-03-30T09:04:57.684Z,13.9521
2023-03-30T09:05:58.104Z,13.9473
2023-03-30T09:06:58.508Z,13.9677
2023-03-30T09:07:58.896Z,13.9645
2023-03-30T09:08:59.300Z,13.8859
2023-03-30T09:09:59.668Z,13.8582
2023-03-30T09:11:00.064Z,13.8505
2023-03-30T09:12:00.443Z,13.7462
2023-03-30T09:13:00.836Z,13.7364
2023-03-30T09:14:01.230Z,13.7181
2023-03-30T09:15:01.653Z,13.6721
2023-03-30T09:16:02.041Z,13.7998
2023-03-30T09:18:02.625Z,13.7376
2023-03-30T09:19:03.020Z,13.7050
2023-03-30T09:20:03.387Z,13.7344
2023-03-30T09:21:04.001Z,13.6484
2023-03-30T09:22:04.532Z,13.6265
2023-03-30T09:23:04.933Z,13.6342
2023-03-30T09:24:05.300Z,13.5994
2023-03-30T09:25:05.695Z,13.4490
2023-03-30T09:26:06.092Z,13.5101
2023-03-30T09:27:06.534Z,13.4842
2023-03-30T09:28:06.957Z,13.5300
2023-03-30T09:29:07.346Z,13.5177
2023-03-30T09:30:07.742Z,13.4558
2023-03-30T09:31:08.414Z,13.4432
2023-03-30T09:32:09.497Z,13.2940
2023-03-30T09:33:09.923Z,13.1163
2023-03-30T09:35:10.590Z,13.0477
2023-03-30T09:36:11.043Z,13.0003
2023-03-30T09:37:11.417Z,12.9610
2023-03-30T09:38:11.834Z,12.9090
2023-03-30T09:39:12.231Z,12.6997
2023-03-30T09:40:12.651Z,12.5314
2023-03-30T09:41:13.058Z,12.4701
2023-03-30T09:42:13.454Z,12.3431
2023-03-30T09:43:14.062Z,12.2213
2023-03-30T09:44:14.440Z,12.2383
2023-03-30T09:45:14.892Z,12.2149
2023-03-30T09:46:15.351Z,12.1587
2023-03-30T09:47:15.763Z,12.2192
2023-03-30T09:48:16.167Z,12.1943
2023-03-30T09:49:16.591Z,12.0994
2023-03-30T09:50:16.982Z,12.0706
2023-03-30T09:51:17.340Z,11.9832
2023-03-30T09:52:17.763Z,11.8918
2023-03-30T09:53:18.199Z,11.7970
2023-03-30T09:54:18.604Z,11.7095
2023-03-30T09:55:19.096Z,11.6903
2023-03-30T09:56:19.533Z,11.6409
2023-03-30T09:57:19.995Z,11.6208
2023-03-30T09:58:20.438Z,11.5687
2023-03-30T09:59:20.852Z,11.5801
2023-03-30T10:00:21.245Z,11.4864
2023-03-30T10:01:21.713Z,11.4086
2023-03-30T10:03:22.450Z,11.1939
2023-03-30T10:04:22.936Z,11.1116
2023-03-30T10:05:23.350Z,11.1281
2023-03-30T10:06:23.776Z,11.0927
2023-03-30T10:07:24.201Z,10.9968
2023-03-30T10:08:25.286Z,10.9706
2023-03-30T10:09:25.981Z,10.9555
2023-03-30T10:10:26.431Z,10.9676
2023-03-30T10:11:26.818Z,10.9592
2023-03-30T10:12:27.258Z,10.9016
2023-03-30T10:13:27.718Z,10.9473
2023-03-30T10:14:28.888Z,10.9403
2023-03-30T10:15:29.475Z,10.9738
2023-03-30T10:16:29.952Z,11.0650
2023-03-30T10:17:30.390Z,11.1269
2023-03-30T10:18:30.800Z,11.1655
2023-03-30T10:19:31.357Z,11.2082
2023-03-30T10:20:31.805Z,11.2011
2023-03-30T10:21:32.183Z,11.1772
2023-03-30T10:22:32.603Z,11.2223
2023-03-30T10:23:33.001Z,11.1775
2023-03-30T10:24:33.474Z,11.1304
2023-03-30T10:26:34.110Z,11.1454
2023-03-30T10:27:34.620Z,11.1376
2023-03-30T10:28:35.050Z,11.1453
2023-03-30T10:29:35.457Z,11.2117
2023-03-30T10:30:35.865Z,11.2659
2023-03-30T10:31:36.302Z,11.2820
2023-03-30T10:32:36.737Z,11.3652
2023-03-30T10:33:37.182Z,11.3428
2023-03-30T10:34:37.549Z,11.2917
2023-03-30T10:35:38.075Z,11.2658
2023-03-30T10:36:38.541Z,11.2471
2023-03-30T10:38:39.241Z,11.2973
2023-03-30T10:39:39.678Z,11.3383
2023-03-30T10:40:40.102Z,11.4071
2023-03-30T10:41:40.537Z,11.4588
2023-03-30T10:42:40.924Z,11.4689
2023-03-30T10:43:41.372Z,11.5344
2023-03-30T10:44:41.794Z,11.6112
2023-03-30T10:45:42.251Z,11.6569
2023-03-30T10:46:42.691Z,11.7287
2023-03-30T10:47:43.147Z,11.8781
2023-03-30T10:48:43.713Z,11.9833
2023-03-30T10:49:44.081Z,12.0642
2023-03-30T10:50:44.477Z,12.6351
2023-03-30T10:51:44.897Z,12.6854
2023-03-30T10:52:52.248Z,12.8107
2023-03-30T10:53:46.767Z,12.6697
2023-03-30T10:54:47.202Z,12.7124
2023-03-30T10:55:47.665Z,12.9287
2023-03-30T10:56:48.117Z,13.0900
2023-03-30T10:57:48.561Z,12.6716
2023-03-30T10:58:48.952Z,12.6428
2023-03-30T10:59:49.343Z,12.6194
2023-03-30T11:00:49.753Z,12.6652
2023-03-30T11:01:50.213Z,12.6691
2023-03-30T11:02:50.640Z,12.6925
2023-03-30T11:03:51.120Z,12.5808
2023-03-30T11:04:51.604Z,12.5991
2023-03-30T11:05:52.140Z,12.7747
2023-03-30T11:06:52.511Z,12.7702
2023-03-30T11:07:52.856Z,12.7242
2023-03-30T11:08:53.221Z,12.7742
2023-03-30T11:09:53.611Z,12.8718
2023-03-30T11:10:54.003Z,12.7873
2023-03-30T11:11:54.328Z,12.7787
2023-03-30T11:12:54.737Z,12.6966
2023-03-30T11:13:55.130Z,12.7144
2023-03-30T11:14:55.541Z,12.6984
2023-03-30T11:15:55.948Z,12.6324
2023-03-30T11:16:56.394Z,12.6131
2023-03-30T11:17:56.827Z,12.6637
2023-03-30T11:18:57.244Z,12.6455
2023-03-30T11:19:57.684Z,12.6694
2023-03-30T11:20:58.152Z,12.6820
2023-03-30T11:21:58.536Z,12.7007
2023-03-30T11:22:58.954Z,12.6608
2023-03-30T11:23:59.368Z,12.5568
2023-03-30T11:24:59.742Z,12.4844
2023-03-30T11:26:00.184Z,12.4220
2023-03-30T11:27:00.516Z,12.4283
2023-03-30T11:28:00.988Z,12.3837
2023-03-30T11:29:01.389Z,12.4977
2023-03-30T11:30:01.780Z,12.4581
2023-03-30T11:31:02.151Z,12.4789
2023-03-30T11:33:02.817Z,12.5096
2023-03-30T11:34:03.208Z,12.5254
2023-03-30T11:35:03.560Z,12.6212
2023-03-30T11:36:04.194Z,12.6286
2023-03-30T11:37:04.768Z,12.6246
2023-03-30T11:38:05.247Z,12.5791
2023-03-30T11:39:05.647Z,12.5663
2023-03-30T11:40:06.254Z,12.4982
2023-03-30T11:41:06.682Z,12.5401
2023-03-30T11:42:07.122Z,12.5954
2023-03-30T11:43:07.666Z,12.6084
2023-03-30T11:44:08.100Z,12.5580
2023-03-30T11:45:08.483Z,12.5440
2023-03-30T11:46:09.088Z,12.5437
2023-03-30T11:47:09.668Z,12.4338
2023-03-30T11:48:10.432Z,12.4778
2023-03-30T11:49:11.036Z,12.4754
2023-03-30T11:50:11.508Z,12.4113
2023-03-30T11:51:11.873Z,12.3138
2023-03-30T11:52:12.290Z,12.3530
2023-03-30T11:53:12.693Z,12.3705
2023-03-30T11:54:13.101Z,12.3358
2023-03-30T11:55:13.485Z,12.4190
2023-03-30T11:56:13.874Z,12.3740
2023-03-30T11:57:14.311Z,12.4464
2023-03-30T11:58:14.965Z,12.8942
2023-03-30T11:59:15.322Z,12.7354
2023-03-30T12:00:15.753Z,12.6686
2023-03-30T12:01:16.186Z,12.4851
2023-03-30T12:02:16.664Z,12.5266
2023-03-30T12:03:17.149Z,12.4145
2023-03-30T12:04:17.654Z,12.4544
2023-03-30T12:05:18.182Z,12.5862
2023-03-30T12:06:18.659Z,12.4988
2023-03-30T12:07:19.050Z,12.5797
2023-03-30T12:08:19.468Z,12.7087
2023-03-30T12:09:19.889Z,12.7939
2023-03-30T12:10:20.290Z,12.9003
2023-03-30T12:11:20.730Z,12.8898
2023-03-30T12:12:21.194Z,12.8114
2023-03-30T12:13:21.632Z,12.8477
2023-03-30T12:14:22.201Z,12.7885
2023-03-30T12:15:22.649Z,12.6450
2023-03-30T12:16:23.889Z,12.4074
2023-03-30T12:17:25.087Z,12.3455
2023-03-30T12:18:25.570Z,12.2559
2023-03-30T12:19:26.060Z,12.2110
2023-03-30T12:20:26.571Z,12.2352
2023-03-30T12:21:27.005Z,12.2504
2023-03-30T12:22:27.490Z,12.2672
2023-03-30T12:23:27.996Z,12.2679
2023-03-30T12:24:28.503Z,12.0801
2023-03-30T12:25:28.948Z,12.0161
2023-03-30T12:26:29.410Z,11.9876
2023-03-30T12:27:32.785Z,11.9594
2023-03-30T12:28:49.701Z,11.9280
2023-03-30T12:30:00.860Z,11.9092
2023-03-30T12:30:37.614Z,11.9010
2023-03-30T12:31:38.069Z,11.7773
2023-03-30T12:32:38.670Z,11.7983
2023-03-30T12:33:39.200Z,11.7226
2023-03-30T12:34:39.716Z,11.6406
2023-03-30T12:35:40.313Z,11.6552